createdAt,value
2023-04-30T00:01:02.028Z,10.00
2023-04-30T00:03:34.446Z,9.79
2023-04-30T00:06:03.572Z,10.07
2023-04-30T00:08:33.133Z,9.88
2023-04-30T00:11:03.656Z,9.89
2023-04-30T00:13:33.115Z,10.00
2023-04-30T00:16:02.257Z,9.95
2023-04-30T00:18:31.783Z,9.95
2023-04-30T00:21:00.906Z,9.93
2023-04-30T00:23:30.357Z,9.96
2023-04-30T00:25:59.430Z,9.91
2023-04-30T00:28:30.311Z,9.86
2023-04-30T00:30:59.424Z,9.84
2023-04-30T00:33:29.114Z,9.82
2023-04-30T00:35:58.154Z,9.73
2023-04-30T00:38:27.694Z,9.57
2023-04-30T00:40:56.854Z,9.57
2023-04-30T00:43:26.433Z,9.59
2023-04-30T00:45:57.017Z,9.59
2023-04-30T00:48:26.553Z,9.62
2023-04-30T00:50:55.601Z,9.32
2023-04-30T00:53:25.118Z,9.40
2023-04-30T00:55:54.194Z,9.28
2023-04-30T00:58:24.155Z,9.24
2023-04-30T01:00:53.341Z,9.34
2023-04-30T01:03:24.514Z,9.03
2023-04-30T01:05:54.274Z,8.91
2023-04-30T01:08:23.755Z,8.89
2023-04-30T01:10:53.698Z,8.86
2023-04-30T01:13:24.894Z,8.76
2023-04-30T01:15:56.366Z,8.90
2023-04-30T01:18:28.440Z,8.91
2023-04-30T01:20:59.197Z,8.86
2023-04-30T01:23:30.574Z,8.87
2023-04-30T01:26:03.947Z,8.80
2023-04-30T01:28:34.879Z,8.55
2023-04-30T01:31:04.061Z,8.56
2023-04-30T01:33:33.567Z,8.46
2023-04-30T01:36:12.103Z,8.30
2023-04-30T01:38:46.011Z,8.30
2023-04-30T01:41:18.347Z,8.28
2023-04-30T01:43:51.104Z,8.32
2023-04-30T01:46:20.990Z,8.15
2023-04-30T01:48:52.946Z,7.91
2023-04-30T01:51:25.197Z,8.08
2023-04-30T01:53:54.621Z,8.06
2023-04-30T01:56:24.972Z,7.90
2023-04-30T01:58:55.843Z,7.78
2023-04-30T02:01:28.774Z,7.81
2023-04-30T02:03:58.466Z,7.89
2023-04-30T02:06:28.817Z,7.69
2023-04-30T02:09:05.466Z,7.74
2023-04-30T02:11:34.719Z,7.62
2023-04-30T02:14:06.341Z,7.55
2023-04-30T02:16:35.622Z,7.47
2023-04-30T02:19:05.124Z,7.59
2023-04-30T02:21:34.256Z,7.63
2023-04-30T02:24:03.945Z,7.48
2023-04-30T02:26:33.105Z,7.43
2023-04-30T02:29:02.611Z,7.52
2023-04-30T02:31:33.112Z,7.56
2023-04-30T02:34:02.690Z,7.47
2023-04-30T02:36:36.338Z,7.43
2023-04-30T02:39:06.360Z,7.36
2023-04-30T02:41:36.533Z,7.22
2023-04-30T02:44:06.236Z,7.17
2023-04-30T02:46:36.810Z,7.22
2023-04-30T02:49:06.656Z,7.10
2023-04-30T02:51:35.764Z,7.22
2023-04-30T02:54:05.267Z,7.27
2023-04-30T02:56:34.738Z,7.19
2023-04-30T02:59:04.263Z,7.18
2023-04-30T03:01:33.408Z,7.12
2023-04-30T03:04:05.133Z,7.28
2023-04-30T03:06:34.564Z,7.11
2023-04-30T03:09:04.310Z,7.18
2023-04-30T03:11:33.870Z,7.14
2023-04-30T03:14:03.311Z,6.99
2023-04-30T03:16:32.497Z,6.92
2023-04-30T03:19:02.044Z,6.89
2023-04-30T03:21:32.729Z,6.87
2023-04-30T03:24:02.202Z,6.73
2023-04-30T03:26:31.386Z,6.74
2023-04-30T03:29:01.353Z,6.62
2023-04-30T03:31:30.478Z,6.60
2023-04-30T03:34:00.174Z,6.71
2023-04-30T03:36:29.471Z,6.60
2023-04-30T03:39:00.360Z,6.53
2023-04-30T03:41:29.700Z,6.46
2023-04-30T03:43:59.122Z,6.45
2023-04-30T03:46:28.293Z,6.55
2023-04-30T03:48:57.848Z,6.63
2023-04-30T03:51:28.547Z,6.65
2023-04-30T03:53:57.979Z,6.64
2023-04-30T03:56:28.554Z,6.70
2023-04-30T03:58:57.962Z,6.67
2023-04-30T04:01:27.041Z,6.77
2023-04-30T04:03:56.450Z,6.68
2023-04-30T04:06:25.632Z,6.84
2023-04-30T04:08:55.088Z,6.94
2023-04-30T04:11:24.215Z,6.99
2023-04-30T04:13:55.861Z,6.92
2023-04-30T04:16:25.072Z,7.05
2023-04-30T04:18:54.545Z,7.11
2023-04-30T04:21:23.664Z,7.12
2023-04-30T04:23:53.136Z,7.17
2023-04-30T04:26:25.722Z,7.18
2023-04-30T04:28:56.711Z,7.16
2023-04-30T04:31:26.909Z,7.38
2023-04-30T04:33:58.870Z,7.30
2023-04-30T04:36:28.894Z,7.37
2023-04-30T04:39:02.185Z,7.30
2023-04-30T04:41:31.498Z,7.33
2023-04-30T04:44:03.512Z,7.47
2023-04-30T04:46:32.998Z,7.53
2023-04-30T04:49:02.627Z,7.58
2023-04-30T04:51:32.344Z,7.54
2023-04-30T04:54:01.781Z,7.70
2023-04-30T04:56:30.908Z,7.67
2023-04-30T04:59:00.628Z,7.76
2023-04-30T05:01:31.213Z,7.87
2023-04-30T05:04:00.995Z,7.84
2023-04-30T05:06:30.331Z,7.87
2023-04-30T05:08:59.837Z,7.98
2023-04-30T05:11:28.871Z,7.99
2023-04-30T05:13:58.475Z,8.13
2023-04-30T05:16:27.776Z,8.14
2023-04-30T05:18:58.823Z,8.22
2023-04-30T05:21:29.874Z,8.23
2023-04-30T05:23:59.425Z,8.24
2023-04-30T05:26:28.518Z,8.21
2023-04-30T05:28:57.988Z,8.34
2023-04-30T05:31:27.156Z,8.38
2023-04-30T05:33:56.741Z,8.48
2023-04-30T05:36:27.371Z,8.56
2023-04-30T05:38:56.856Z,8.54
2023-04-30T05:41:26.017Z,8.65
2023-04-30T05:43:55.683Z,8.69
2023-04-30T05:46:24.910Z,8.79
2023-04-30T05:48:54.472Z,8.88
2023-04-30T05:51:23.568Z,8.84
2023-04-30T05:53:54.503Z,9.04
2023-04-30T05:56:24.067Z,9.08
2023-04-30T05:58:53.791Z,9.26
2023-04-30T06:01:23.379Z,9.26
2023-04-30T06:03:53.034Z,9.16
2023-04-30T06:06:22.305Z,9.17
2023-04-30T06:08:51.804Z,9.24
2023-04-30T06:11:22.829Z,9.29
2023-04-30T06:13:52.298Z,9.48
2023-04-30T06:16:21.490Z,9.42
2023-04-30T06:18:53.443Z,9.43
2023-04-30T06:21:26.058Z,9.53
2023-04-30T06:23:55.467Z,9.64
2023-04-30T06:26:26.110Z,9.63
2023-04-30T06:28:56.198Z,9.57
2023-04-30T06:31:25.382Z,9.66
2023-04-30T06:33:54.833Z,9.69
2023-04-30T06:36:24.005Z,9.77
2023-04-30T06:38:53.488Z,9.83
2023-04-30T06:41:22.606Z,9.94
2023-04-30T06:43:53.686Z,10.01
2023-04-30T06:46:22.934Z,9.89
2023-04-30T06:48:52.464Z,9.93
2023-04-30T06:51:21.642Z,10.09
2023-04-30T06:53:51.300Z,10.19
2023-04-30T06:56:22.168Z,10.12
2023-04-30T06:58:51.609Z,10.11
2023-04-30T07:01:22.231Z,10.16
2023-04-30T07:03:52.865Z,10.12
2023-04-30T07:06:22.359Z,10.16
2023-04-30T07:08:51.787Z,10.18
2023-04-30T07:11:20.932Z,10.17
2023-04-30T07:13:50.397Z,10.19
2023-04-30T07:16:19.592Z,10.30
2023-04-30T07:18:50.853Z,10.37
2023-04-30T07:21:19.950Z,10.40
2023-04-30T07:23:51.701Z,10.45
2023-04-30T07:26:21.114Z,10.49
2023-04-30T07:28:50.940Z,10.49
2023-04-30T07:31:20.603Z,10.51
2023-04-30T07:33:55.573Z,10.60
2023-04-30T07:36:24.754Z,10.58
2023-04-30T07:38:54.449Z,10.65
2023-04-30T07:41:23.571Z,10.62
2023-04-30T07:43:53.322Z,10.53
2023-04-30T07:46:22.469Z,10.54
2023-04-30T07:48:53.415Z,10.67
2023-04-30T07:51:22.547Z,10.62
2023-04-30T07:53:53.354Z,10.53
2023-04-30T07:56:22.978Z,10.64
2023-04-30T07:58:52.521Z,10.71
2023-04-30T08:01:21.589Z,10.73
2023-04-30T08:03:51.583Z,10.74
2023-04-30T08:06:23.048Z,10.87
2023-04-30T08:08:52.617Z,10.88
2023-04-30T08:11:21.782Z,10.91
2023-04-30T08:13:51.276Z,11.00
2023-04-30T08:16:20.512Z,11.04
2023-04-30T08:18:50.010Z,10.98
2023-04-30T08:21:19.335Z,11.14
2023-04-30T08:23:50.183Z,11.20
2023-04-30T08:26:19.400Z,11.22
2023-04-30T08:28:48.796Z,11.29
2023-04-30T08:31:18.658Z,11.28
2023-04-30T08:33:48.205Z,11.35
2023-04-30T08:36:17.379Z,11.37
2023-04-30T08:38:46.899Z,11.49
2023-04-30T08:41:17.521Z,11.46
2023-04-30T08:43:46.963Z,11.45
2023-04-30T08:46:17.635Z,11.45
2023-04-30T08:48:48.521Z,11.59
2023-04-30T08:51:17.712Z,11.77
2023-04-30T08:53:47.258Z,11.55
2023-04-30T08:56:17.732Z,11.56
2023-04-30T08:58:47.209Z,11.85
2023-04-30T09:01:16.340Z,11.74
2023-04-30T09:03:45.965Z,11.81
2023-04-30T09:06:17.153Z,11.84
2023-04-30T09:08:48.200Z,11.89
2023-04-30T09:11:28.375Z,12.01
2023-04-30T09:13:59.547Z,12.21
2023-04-30T09:16:30.940Z,12.18
2023-04-30T09:19:00.571Z,12.06
2023-04-30T09:21:33.239Z,12.01
2023-04-30T09:24:03.350Z,12.13
2023-04-30T09:26:35.226Z,12.14
2023-04-30T09:29:08.208Z,12.20
2023-04-30T09:31:37.723Z,12.28
2023-04-30T09:34:07.498Z,12.21
2023-04-30T09:36:36.937Z,12.21
2023-04-30T09:39:14.869Z,12.23
2023-04-30T09:41:46.500Z,12.21
2023-04-30T09:44:27.820Z,12.25
2023-04-30T09:46:57.469Z,12.38
2023-04-30T09:49:27.621Z,12.60
2023-04-30T09:51:57.749Z,12.53
2023-04-30T09:54:28.139Z,12.74
2023-04-30T09:56:59.294Z,12.83
2023-04-30T09:59:30.905Z,12.69
2023-04-30T10:02:01.384Z,12.82
2023-04-30T10:04:32.156Z,12.83
2023-04-30T10:07:01.747Z,12.90
2023-04-30T10:09:31.763Z,12.91
2023-04-30T10:12:02.261Z,12.93
2023-04-30T10:14:34.416Z,12.75
2023-04-30T10:17:05.340Z,12.76
2023-04-30T10:19:35.696Z,12.88
2023-04-30T10:22:04.797Z,12.87
2023-04-30T10:24:34.296Z,12.83
2023-04-30T10:27:04.923Z,12.88
2023-04-30T10:29:34.474Z,13.00
2023-04-30T10:32:05.368Z,12.70
2023-04-30T10:34:37.528Z,12.78
2023-04-30T10:37:07.340Z,12.81
2023-04-30T10:39:36.926Z,12.98
2023-04-30T10:42:07.794Z,12.95
2023-04-30T10:44:38.053Z,12.94
2023-04-30T10:47:07.532Z,12.93
2023-04-30T10:49:37.080Z,12.89
2023-04-30T10:52:06.511Z,12.89
2023-04-30T10:54:36.793Z,12.91
2023-04-30T10:57:14.390Z,12.87
2023-04-30T10:59:45.271Z,12.93
2023-04-30T11:02:14.432Z,12.88
2023-04-30T11:05:05.179Z,12.95
2023-04-30T11:07:34.588Z,12.93
2023-04-30T11:10:04.149Z,13.00
2023-04-30T11:12:34.759Z,12.93
2023-04-30T11:15:07.463Z,12.94
2023-04-30T11:17:36.758Z,13.03
2023-04-30T11:20:06.764Z,13.03
2023-04-30T11:22:37.196Z,13.09
2023-04-30T11:25:07.465Z,13.04
2023-04-30T11:27:38.383Z,13.13
2023-04-30T11:30:12.038Z,13.28
2023-04-30T11:32:41.346Z,13.25
2023-04-30T11:35:11.243Z,13.18
2023-04-30T11:37:41.615Z,12.99
2023-04-30T11:40:11.712Z,13.10
2023-04-30T11:42:46.184Z,13.19
2023-04-30T11:45:17.928Z,13.07
2023-04-30T11:47:47.610Z,13.09
2023-04-30T11:50:19.328Z,13.16
2023-04-30T11:52:50.628Z,13.25
2023-04-30T11:55:20.680Z,13.27
2023-04-30T11:57:51.747Z,13.25
2023-04-30T12:00:22.132Z,13.33
2023-04-30T12:02:51.605Z,13.39
2023-04-30T12:05:21.741Z,13.43
2023-04-30T12:07:51.351Z,13.59
2023-04-30T12:10:21.163Z,13.59
2023-04-30T12:12:53.318Z,13.52
2023-04-30T12:15:27.082Z,13.69
2023-04-30T12:17:57.064Z,13.83
2023-04-30T12:20:28.319Z,13.92
2023-04-30T12:22:58.233Z,14.07
2023-04-30T12:25:28.654Z,14.19
2023-04-30T12:28:00.218Z,14.26
2023-04-30T12:30:30.635Z,14.33
2023-04-30T12:33:01.091Z,14.38
2023-04-30T12:35:31.545Z,14.39
2023-04-30T12:38:04.313Z,14.46
2023-04-30T12:40:33.921Z,14.59
2023-04-30T12:43:05.374Z,14.69
2023-04-30T12:45:44.575Z,14.77
2023-04-30T12:48:13.915Z,14.68
2023-04-30T12:50:43.676Z,14.76
2023-04-30T12:53:12.800Z,14.88
2023-04-30T12:55:42.364Z,14.90
2023-04-30T12:58:14.595Z,15.04
2023-04-30T13:00:47.912Z,15.13
2023-04-30T13:03:17.930Z,15.36
2023-04-30T13:05:48.452Z,15.38
2023-04-30T13:08:17.568Z,15.39
2023-04-30T13:10:47.460Z,15.48
2023-04-30T13:13:18.780Z,15.47
2023-04-30T13:15:48.557Z,15.62
2023-04-30T13:18:17.821Z,15.58
2023-04-30T13:20:47.594Z,15.78
2023-04-30T13:23:16.752Z,15.71
2023-04-30T13:25:46.736Z,15.61
2023-04-30T13:28:17.704Z,15.60
2023-04-30T13:30:47.254Z,15.64
2023-04-30T13:33:16.432Z,15.62
2023-04-30T13:35:46.752Z,15.41
2023-04-30T13:38:15.878Z,15.51
2023-04-30T13:40:45.306Z,15.47
2023-04-30T13:43:14.518Z,15.53
2023-04-30T13:45:45.380Z,15.25
2023-04-30T13:48:14.618Z,15.35
2023-04-30T13:50:44.124Z,15.30
2023-04-30T13:53:13.280Z,15.42
2023-04-30T13:55:43.174Z,15.49
2023-04-30T13:58:12.271Z,15.54
2023-04-30T14:00:41.756Z,15.48
2023-04-30T14:03:12.810Z,15.60
2023-04-30T14:05:42.482Z,15.57
2023-04-30T14:08:12.904Z,15.59
2023-04-30T14:10:42.516Z,15.64
2023-04-30T14:13:11.658Z,15.82
2023-04-30T14:15:41.361Z,15.74
2023-04-30T14:18:10.662Z,15.86
2023-04-30T14:20:41.906Z,15.85
2023-04-30T14:23:11.027Z,15.92
2023-04-30T14:25:40.740Z,16.03
2023-04-30T14:28:09.966Z,16.11
2023-04-30T14:30:39.421Z,16.14
2023-04-30T14:33:11.200Z,16.21
2023-04-30T14:35:42.858Z,16.27
2023-04-30T14:38:12.101Z,16.20
2023-04-30T14:40:41.580Z,16.28
2023-04-30T14:43:10.705Z,16.28
2023-04-30T14:45:41.003Z,16.45
2023-04-30T14:48:10.319Z,16.57
2023-04-30T14:50:39.859Z,16.68
2023-04-30T14:53:11.553Z,16.70
2023-04-30T14:55:41.100Z,16.83
2023-04-30T14:58:10.208Z,17.12
2023-04-30T15:00:39.736Z,17.19
2023-04-30T15:03:09.572Z,17.20
2023-04-30T15:05:39.146Z,17.38
2023-04-30T15:08:08.269Z,17.56
2023-04-30T15:10:39.180Z,17.74
2023-04-30T15:13:08.432Z,17.95
2023-04-30T15:15:37.922Z,18.11
2023-04-30T15:18:07.394Z,18.19
2023-04-30T15:20:36.926Z,18.38
2023-04-30T15:23:06.049Z,18.46
2023-04-30T15:25:35.512Z,18.66
2023-04-30T15:28:06.908Z,18.26
2023-04-30T15:30:36.396Z,18.39
2023-04-30T15:33:05.745Z,18.62
2023-04-30T15:35:35.328Z,18.62
2023-04-30T15:38:04.459Z,18.51
2023-04-30T15:40:33.963Z,18.21
2023-04-30T15:43:03.078Z,18.02
2023-04-30T15:45:33.956Z,17.25
2023-04-30T15:48:03.237Z,17.14
2023-04-30T15:50:32.775Z,16.70
2023-04-30T15:53:01.920Z,16.38
2023-04-30T15:55:31.479Z,16.11
2023-04-30T15:58:00.589Z,15.93
2023-04-30T16:00:30.159Z,15.87
2023-04-30T16:03:01.636Z,15.68
2023-04-30T16:05:31.706Z,15.66
2023-04-30T16:08:00.957Z,15.50
2023-04-30T16:10:30.576Z,15.26
2023-04-30T16:12:59.699Z,15.19
2023-04-30T16:15:30.380Z,14.88
2023-04-30T16:18:01.063Z,14.70
2023-04-30T16:20:30.602Z,14.85
2023-04-30T16:22:59.687Z,14.52
2023-04-30T16:25:29.229Z,14.48
2023-04-30T16:27:58.569Z,14.44
2023-04-30T16:30:28.002Z,14.42
2023-04-30T16:32:57.155Z,14.17
2023-04-30T16:35:28.142Z,14.12
2023-04-30T16:37:57.200Z,14.09
2023-04-30T16:40:26.868Z,13.98
2023-04-30T16:42:56.010Z,13.84
2023-04-30T16:45:25.523Z,13.72
2023-04-30T16:47:54.781Z,13.71
2023-04-30T16:50:26.982Z,13.43
2023-04-30T16:52:57.516Z,13.42
2023-04-30T16:55:27.718Z,13.45
2023-04-30T16:57:56.849Z,13.26
2023-04-30T17:00:26.420Z,13.10
2023-04-30T17:02:55.634Z,12.95
2023-04-30T17:05:25.264Z,12.98
2023-04-30T17:07:54.423Z,12.94
2023-04-30T17:10:25.749Z,12.85
2023-04-30T17:12:57.788Z,12.81
2023-04-30T17:15:27.392Z,12.66
2023-04-30T17:17:57.943Z,12.52
2023-04-30T17:20:27.551Z,12.43
2023-04-30T17:22:56.835Z,12.43
2023-04-30T17:25:29.755Z,12.49
2023-04-30T17:28:01.556Z,12.41
2023-04-30T17:30:31.162Z,12.27
2023-04-30T17:33:01.020Z,12.22
2023-04-30T17:35:30.578Z,12.19
2023-04-30T17:37:59.784Z,12.19
2023-04-30T17:40:31.627Z,12.24
2023-04-30T17:43:00.843Z,12.10
2023-04-30T17:45:30.364Z,11.98
2023-04-30T17:47:59.534Z,11.90
2023-04-30T17:50:29.051Z,11.99
2023-04-30T17:52:58.214Z,12.17
2023-04-30T17:55:27.659Z,12.08
2023-04-30T17:57:59.513Z,12.02
2023-04-30T18:00:28.950Z,11.78
2023-04-30T18:02:58.170Z,11.85
2023-04-30T18:05:27.790Z,11.97
2023-04-30T18:08:11.580Z,11.87
2023-04-30T18:10:41.102Z,11.68
2023-04-30T18:13:10.443Z,11.75
2023-04-30T18:15:39.895Z,11.81
2023-04-30T18:18:09.898Z,11.67
2023-04-30T18:20:39.456Z,11.69
2023-04-30T18:23:10.064Z,11.57
2023-04-30T18:25:42.443Z,11.40
2023-04-30T18:28:11.604Z,11.34
2023-04-30T18:30:41.125Z,11.40
2023-04-30T18:33:11.043Z,11.49
2023-04-30T18:35:40.512Z,11.44
2023-04-30T18:38:09.672Z,11.29
2023-04-30T18:40:40.606Z,11.30
2023-04-30T18:43:09.709Z,11.23
2023-04-30T18:45:39.340Z,11.15
2023-04-30T18:48:08.780Z,11.21
2023-04-30T18:50:38.324Z,11.04
2023-04-30T18:53:07.979Z,11.17
2023-04-30T18:55:40.336Z,11.15
2023-04-30T18:58:11.063Z,11.17
2023-04-30T19:00:42.409Z,11.06
2023-04-30T19:03:11.734Z,11.10
2023-04-30T19:05:42.409Z,11.05
2023-04-30T19:08:15.267Z,11.03
2023-04-30T19:10:44.765Z,11.01
2023-04-30T19:13:15.400Z,11.01
2023-04-30T19:15:48.779Z,10.99
2023-04-30T19:18:17.989Z,10.95
2023-04-30T19:20:57.288Z,10.86
2023-04-30T19:23:26.432Z,10.85
2023-04-30T19:25:55.883Z,10.80
2023-04-30T19:28:26.529Z,10.67
2023-04-30T19:30:56.538Z,10.73
2023-04-30T19:33:26.202Z,10.68
2023-04-30T19:35:55.821Z,10.61
2023-04-30T19:38:25.140Z,10.54
2023-04-30T19:40:55.632Z,10.51
2023-04-30T19:43:25.498Z,10.48
2023-04-30T19:45:56.995Z,10.37
2023-04-30T19:48:26.883Z,10.37
2023-04-30T19:50:58.235Z,10.31
2023-04-30T19:53:27.474Z,10.28
2023-04-30T19:55:57.114Z,10.23
2023-04-30T19:58:26.286Z,10.18
2023-04-30T20:00:57.955Z,9.97
2023-04-30T20:03:27.201Z,9.89
2023-04-30T20:05:57.018Z,9.96
2023-04-30T20:08:26.248Z,9.93
2023-04-30T20:10:57.350Z,9.91
2023-04-30T20:13:27.074Z,9.79
2023-04-30T20:15:57.924Z,9.70
2023-04-30T20:18:27.232Z,9.70
2023-04-30T20:20:57.923Z,9.51
2023-04-30T20:23:27.080Z,9.51
2023-04-30T20:25:56.624Z,9.55
2023-04-30T20:28:26.085Z,9.55
2023-04-30T20:30:55.902Z,9.53
2023-04-30T20:33:26.687Z,9.41
2023-04-30T20:35:57.708Z,9.36
2023-04-30T20:38:26.922Z,9.33
2023-04-30T20:40:56.612Z,9.16
2023-04-30T20:43:25.807Z,9.10
2023-04-30T20:45:57.418Z,9.13
2023-04-30T20:48:28.061Z,9.03
2023-04-30T20:50:57.626Z,9.05
2023-04-30T20:53:26.688Z,9.04
2023-04-30T20:56:00.332Z,8.97
2023-04-30T20:58:29.904Z,8.99
2023-04-30T21:00:59.463Z,8.98
2023-04-30T21:03:30.598Z,8.94
2023-04-30T21:06:00.253Z,8.89
2023-04-30T21:08:29.397Z,8.86
2023-04-30T21:10:58.867Z,8.66
2023-04-30T21:13:28.788Z,8.68
2023-04-30T21:15:58.312Z,8.39
2023-04-30T21:18:27.805Z,8.38
2023-04-30T21:21:04.885Z,8.32
2023-04-30T21:23:34.041Z,8.28
2023-04-30T21:26:03.943Z,8.07
2023-04-30T21:28:33.905Z,8.11
2023-04-30T21:31:05.273Z,8.16
2023-04-30T21:33:34.478Z,7.91
2023-04-30T21:36:05.503Z,7.97
2023-04-30T21:38:35.333Z,7.89
2023-04-30T21:41:04.774Z,7.82
2023-04-30T21:43:33.923Z,7.94
2023-04-30T21:46:03.594Z,7.96
2023-04-30T21:48:32.773Z,7.90
2023-04-30T21:51:02.274Z,7.86
2023-04-30T21:53:32.822Z,7.81
2023-04-30T21:56:13.219Z,7.81
2023-04-30T21:58:42.594Z,7.75
2023-04-30T22:01:12.452Z,7.77
2023-04-30T22:03:43.019Z,7.47
2023-04-30T22:06:14.335Z,7.41
2023-04-30T22:08:50.640Z,7.50
2023-04-30T22:11:21.334Z,7.62
2023-04-30T22:13:50.472Z,7.56
2023-04-30T22:16:22.905Z,7.57
2023-04-30T22:18:52.044Z,7.54
2023-04-30T22:21:21.573Z,7.58
2023-04-30T22:23:52.188Z,7.62
2023-04-30T22:26:23.148Z,7.64
2023-04-30T22:28:53.361Z,7.63
2023-04-30T22:31:23.210Z,7.57
2023-04-30T22:34:01.108Z,7.59
2023-04-30T22:36:32.495Z,7.52
2023-04-30T22:39:03.882Z,7.52
2023-04-30T22:41:34.761Z,7.48
2023-04-30T22:44:03.866Z,7.38
2023-04-30T22:46:33.798Z,7.46
2023-04-30T22:49:02.982Z,7.40
2023-04-30T22:51:34.811Z,7.39
2023-04-30T22:54:05.408Z,7.30
2023-04-30T22:56:39.482Z,7.26
2023-04-30T22:59:09.091Z,7.32
2023-04-30T23:01:38.510Z,7.25
2023-04-30T23:04:07.682Z,7.09
2023-04-30T23:06:37.239Z,6.79
2023-04-30T23:09:12.523Z,6.92
2023-04-30T23:11:42.069Z,6.71
2023-04-30T23:14:11.200Z,6.68
2023-04-30T23:16:42.837Z,6.60
2023-04-30T23:19:12.124Z,6.71
2023-04-30T23:21:41.567Z,6.64
2023-04-30T23:24:12.125Z,6.62
2023-04-30T23:26:41.606Z,6.56
2023-04-30T23:29:10.677Z,6.54
2023-04-30T23:31:40.209Z,6.43
2023-04-30T23:34:09.349Z,6.48
2023-04-30T23:36:38.823Z,6.48
2023-04-30T23:39:08.135Z,6.47
2023-04-30T23:41:39.086Z,6.61
2023-04-30T23:44:08.225Z,6.43
2023-04-30T23:46:37.707Z,6.63
2023-04-30T23:49:06.837Z,6.63
2023-04-30T23:51:36.395Z,6.52
2023-04-30T23:54:05.987Z,6.67
2023-04-30T23:56:36.648Z,6.38
2023-04-30T23:59:07.237Z,6.48
